Portada
METAR-TAF:

METAR-TAF

Aeroports :

Savanna, Illinois, Estats Units d'Amèrica

Tri-Township Airport

latitud: 42-02-45N, longitud: 090-06-28W, altitud: 188 m

Observació

L'informe es va fer fa 15 hores i 35 minuts, a les 15:15 UTC
Vent calma
Temperatura 3°C
Humitat 100%
Pressió 1010 hPa
Visibilitat: 4.8 km
Cel cobert a una alçada de 700 ft
boirina

METAR: KSFY 201515Z AUTO 00000KT 3SM BR OVC007 03/03 A2983 RMK AO2 T00260025

Hora: 00:50 (06:50 UTC)


TAF: manca

Observacions i pronòstics meteorològics de més de 4000 aeroports (METAR i TAF).

Les estacions disponibles són els punts grocs i vermells al mapa.

Posi el ratolí al punt desitjat per veure el nom de l'estació.

Feu clic per veure les observacions i els pronòstics meteorològics.

Per canviar el mapa: feu clic els botons verds amb una creu de color negre per apropar; al botó verd amb un guió per allunyar la imatge; o en les fletxes verdes per a mapes adjacents.


METAR-TAF: